sensor_id;sensor_type;location;lat;lon;timestamp;P1;durP1;ratioP1;P2;durP2;ratioP2
12760;SDS011;6444;49.742;6.114;2023-06-26T00:00:55;6.60;;;6.00;;
12760;SDS011;6444;49.742;6.114;2023-06-26T00:03:22;7.15;;;6.03;;
12760;SDS011;6444;49.742;6.114;2023-06-26T00:05:49;6.97;;;6.00;;
12760;SDS011;6444;49.742;6.114;2023-06-26T00:08:15;6.80;;;5.80;;
12760;SDS011;6444;49.742;6.114;2023-06-26T00:10:43;7.03;;;6.32;;
12760;SDS011;6444;49.742;6.114;2023-06-26T00:13:09;6.53;;;5.93;;
12760;SDS011;6444;49.742;6.114;2023-06-26T00:15:36;7.07;;;6.35;;
12760;SDS011;6444;49.742;6.114;2023-06-26T00:18:03;7.25;;;6.35;;
12760;SDS011;6444;49.742;6.114;2023-06-26T00:20:29;6.82;;;6.03;;
12760;SDS011;6444;49.742;6.114;2023-06-26T00:22:57;7.87;;;7.10;;
12760;SDS011;6444;49.742;6.114;2023-06-26T00:25:23;7.70;;;6.65;;
12760;SDS011;6444;49.742;6.114;2023-06-26T00:27:50;6.80;;;6.10;;
12760;SDS011;6444;49.742;6.114;2023-06-26T00:30:17;7.03;;;6.32;;
12760;SDS011;6444;49.742;6.114;2023-06-26T00:32:44;11.30;;;6.78;;
12760;SDS011;6444;49.742;6.114;2023-06-26T00:35:11;6.93;;;6.20;;
12760;SDS011;6444;49.742;6.114;2023-06-26T00:37:37;7.07;;;6.37;;
12760;SDS011;6444;49.742;6.114;2023-06-26T00:40:04;7.90;;;6.60;;
12760;SDS011;6444;49.742;6.114;2023-06-26T00:42:31;7.37;;;6.65;;
12760;SDS011;6444;49.742;6.114;2023-06-26T00:44:57;7.57;;;6.50;;
12760;SDS011;6444;49.742;6.114;2023-06-26T00:47:24;7.12;;;6.30;;
12760;SDS011;6444;49.742;6.114;2023-06-26T00:49:51;7.93;;;6.40;;
12760;SDS011;6444;49.742;6.114;2023-06-26T00:52:18;7.18;;;6.47;;
12760;SDS011;6444;49.742;6.114;2023-06-26T00:54:45;9.60;;;6.65;;
12760;SDS011;6444;49.742;6.114;2023-06-26T00:57:11;7.75;;;6.62;;
12760;SDS011;6444;49.742;6.114;2023-06-26T00:59:39;8.13;;;6.90;;
12760;SDS011;6444;49.742;6.114;2023-06-26T01:02:05;7.50;;;6.70;;
12760;SDS011;6444;49.742;6.114;2023-06-26T01:04:32;6.93;;;6.22;;
12760;SDS011;6444;49.742;6.114;2023-06-26T01:06:59;7.60;;;6.57;;
12760;SDS011;6444;49.742;6.114;2023-06-26T01:09:25;7.62;;;6.82;;
12760;SDS011;6444;49.742;6.114;2023-06-26T01:11:53;8.23;;;7.15;;
12760;SDS011;6444;49.742;6.114;2023-06-26T01:14:19;8.70;;;6.82;;
12760;SDS011;6444;49.742;6.114;2023-06-26T01:16:46;7.75;;;6.97;;
12760;SDS011;6444;49.742;6.114;2023-06-26T01:19:18;7.90;;;7.00;;
12760;SDS011;6444;49.742;6.114;2023-06-26T01:21:45;6.78;;;6.18;;
12760;SDS011;6444;49.742;6.114;2023-06-26T01:24:17;8.60;;;7.80;;
12760;SDS011;6444;49.742;6.114;2023-06-26T01:26:50;7.12;;;6.53;;
12760;SDS011;6444;49.742;6.114;2023-06-26T01:29:13;7.55;;;6.72;;
12760;SDS011;6444;49.742;6.114;2023-06-26T01:31:40;8.30;;;6.57;;
12760;SDS011;6444;49.742;6.114;2023-06-26T01:34:06;8.80;;;6.75;;
12760;SDS011;6444;49.742;6.114;2023-06-26T01:36:33;7.50;;;6.70;;
12760;SDS011;6444;49.742;6.114;2023-06-26T01:38:59;7.95;;;7.15;;
12760;SDS011;6444;49.742;6.114;2023-06-26T01:41:26;7.30;;;6.60;;
12760;SDS011;6444;49.742;6.114;2023-06-26T01:46:49;8.52;;;7.68;;
12760;SDS011;6444;49.742;6.114;2023-06-26T01:49:15;8.73;;;7.37;;
12760;SDS011;6444;49.742;6.114;2023-06-26T01:51:47;7.72;;;7.00;;
12760;SDS011;6444;49.742;6.114;2023-06-26T01:54:16;7.78;;;6.62;;
12760;SDS011;6444;49.742;6.114;2023-06-26T01:56:42;8.35;;;7.03;;
12760;SDS011;6444;49.742;6.114;2023-06-26T01:59:08;7.72;;;7.03;;
12760;SDS011;6444;49.742;6.114;2023-06-26T02:01:35;8.13;;;7.32;;
12760;SDS011;6444;49.742;6.114;2023-06-26T02:04:02;9.30;;;8.30;;
12760;SDS011;6444;49.742;6.114;2023-06-26T02:06:28;8.68;;;7.87;;
12760;SDS011;6444;49.742;6.114;2023-06-26T02:08:55;8.15;;;7.45;;
12760;SDS011;6444;49.742;6.114;2023-06-26T02:11:22;9.32;;;8.45;;
12760;SDS011;6444;49.742;6.114;2023-06-26T02:13:48;8.77;;;7.87;;
12760;SDS011;6444;49.742;6.114;2023-06-26T02:16:15;8.07;;;7.30;;
12760;SDS011;6444;49.742;6.114;2023-06-26T02:18:41;8.55;;;7.57;;
12760;SDS011;6444;49.742;6.114;2023-06-26T02:21:08;8.35;;;7.55;;
12760;SDS011;6444;49.742;6.114;2023-06-26T02:23:35;8.98;;;7.25;;
12760;SDS011;6444;49.742;6.114;2023-06-26T02:26:01;8.10;;;7.30;;
12760;SDS011;6444;49.742;6.114;2023-06-26T02:28:29;8.05;;;7.22;;
12760;SDS011;6444;49.742;6.114;2023-06-26T02:30:55;8.43;;;7.62;;
12760;SDS011;6444;49.742;6.114;2023-06-26T02:33:22;9.07;;;8.18;;
12760;SDS011;6444;49.742;6.114;2023-06-26T02:35:49;8.65;;;7.75;;
12760;SDS011;6444;49.742;6.114;2023-06-26T02:38:15;8.68;;;7.87;;
12760;SDS011;6444;49.742;6.114;2023-06-26T02:40:42;8.98;;;7.75;;
12760;SDS011;6444;49.742;6.114;2023-06-26T02:43:09;12.23;;;9.30;;
12760;SDS011;6444;49.742;6.114;2023-06-26T02:45:35;8.93;;;8.02;;
12760;SDS011;6444;49.742;6.114;2023-06-26T02:48:02;10.00;;;8.98;;
12760;SDS011;6444;49.742;6.114;2023-06-26T02:50:28;8.82;;;8.02;;
12760;SDS011;6444;49.742;6.114;2023-06-26T02:52:55;9.07;;;8.20;;
12760;SDS011;6444;49.742;6.114;2023-06-26T02:55:22;9.63;;;7.85;;
12760;SDS011;6444;49.742;6.114;2023-06-26T02:57:48;8.02;;;7.32;;
12760;SDS011;6444;49.742;6.114;2023-06-26T03:00:15;7.90;;;7.12;;
12760;SDS011;6444;49.742;6.114;2023-06-26T03:02:42;8.65;;;7.75;;
12760;SDS011;6444;49.742;6.114;2023-06-26T03:05:08;11.63;;;8.10;;
12760;SDS011;6444;49.742;6.114;2023-06-26T03:07:35;8.95;;;7.95;;
12760;SDS011;6444;49.742;6.114;2023-06-26T03:10:02;9.25;;;8.45;;
12760;SDS011;6444;49.742;6.114;2023-06-26T03:12:28;9.02;;;8.18;;
12760;SDS011;6444;49.742;6.114;2023-06-26T03:14:55;9.02;;;8.13;;
12760;SDS011;6444;49.742;6.114;2023-06-26T03:17:21;12.35;;;7.90;;
12760;SDS011;6444;49.742;6.114;2023-06-26T03:19:48;9.20;;;8.25;;
12760;SDS011;6444;49.742;6.114;2023-06-26T03:22:15;8.88;;;7.95;;
12760;SDS011;6444;49.742;6.114;2023-06-26T03:24:43;8.75;;;7.85;;
12760;SDS011;6444;49.742;6.114;2023-06-26T03:27:09;9.35;;;8.45;;
12760;SDS011;6444;49.742;6.114;2023-06-26T03:29:35;11.85;;;9.45;;
12760;SDS011;6444;49.742;6.114;2023-06-26T03:32:02;10.30;;;9.15;;
12760;SDS011;6444;49.742;6.114;2023-06-26T03:34:29;10.90;;;9.32;;
12760;SDS011;6444;49.742;6.114;2023-06-26T03:36:56;9.82;;;8.52;;
12760;SDS011;6444;49.742;6.114;2023-06-26T03:39:23;11.93;;;9.15;;
12760;SDS011;6444;49.742;6.114;2023-06-26T03:41:49;9.77;;;8.80;;
12760;SDS011;6444;49.742;6.114;2023-06-26T03:44:16;9.63;;;8.73;;
12760;SDS011;6444;49.742;6.114;2023-06-26T03:46:43;11.23;;;9.15;;
12760;SDS011;6444;49.742;6.114;2023-06-26T03:49:09;10.35;;;9.25;;
12760;SDS011;6444;49.742;6.114;2023-06-26T03:51:36;12.10;;;9.60;;
12760;SDS011;6444;49.742;6.114;2023-06-26T03:54:02;9.50;;;8.60;;
12760;SDS011;6444;49.742;6.114;2023-06-26T03:56:29;9.48;;;8.48;;
12760;SDS011;6444;49.742;6.114;2023-06-26T03:58:56;10.15;;;9.13;;
12760;SDS011;6444;49.742;6.114;2023-06-26T04:01:22;10.90;;;8.77;;
12760;SDS011;6444;49.742;6.114;2023-06-26T04:03:49;9.93;;;8.93;;
12760;SDS011;6444;49.742;6.114;2023-06-26T04:06:16;10.05;;;9.05;;
12760;SDS011;6444;49.742;6.114;2023-06-26T04:08:42;8.38;;;7.47;;
12760;SDS011;6444;49.742;6.114;2023-06-26T04:11:09;9.57;;;8.18;;
12760;SDS011;6444;49.742;6.114;2023-06-26T04:13:35;7.65;;;6.93;;
12760;SDS011;6444;49.742;6.114;2023-06-26T04:16:03;9.07;;;8.20;;
12760;SDS011;6444;49.742;6.114;2023-06-26T04:18:30;8.70;;;7.68;;
12760;SDS011;6444;49.742;6.114;2023-06-26T04:21:07;8.52;;;7.15;;
12760;SDS011;6444;49.742;6.114;2023-06-26T04:23:32;7.70;;;7.00;;
12760;SDS011;6444;49.742;6.114;2023-06-26T04:26:00;8.68;;;7.87;;
12760;SDS011;6444;49.742;6.114;2023-06-26T04:28:26;8.57;;;7.57;;
12760;SDS011;6444;49.742;6.114;2023-06-26T04:30:53;8.95;;;8.00;;
12760;SDS011;6444;49.742;6.114;2023-06-26T04:33:19;8.70;;;7.87;;
12760;SDS011;6444;49.742;6.114;2023-06-26T04:35:46;7.93;;;7.05;;
12760;SDS011;6444;49.742;6.114;2023-06-26T04:38:13;7.78;;;7.07;;
12760;SDS011;6444;49.742;6.114;2023-06-26T04:40:39;7.47;;;6.78;;
12760;SDS011;6444;49.742;6.114;2023-06-26T04:43:06;9.05;;;7.55;;
12760;SDS011;6444;49.742;6.114;2023-06-26T04:45:33;9.15;;;7.12;;
12760;SDS011;6444;49.742;6.114;2023-06-26T04:47:59;9.07;;;8.18;;
12760;SDS011;6444;49.742;6.114;2023-06-26T04:50:26;9.43;;;8.52;;
12760;SDS011;6444;49.742;6.114;2023-06-26T04:52:52;9.38;;;8.13;;
12760;SDS011;6444;49.742;6.114;2023-06-26T04:55:19;8.75;;;7.85;;
12760;SDS011;6444;49.742;6.114;2023-06-26T04:57:46;9.85;;;8.05;;
12760;SDS011;6444;49.742;6.114;2023-06-26T05:00:13;8.40;;;7.45;;
12760;SDS011;6444;49.742;6.114;2023-06-26T05:02:39;8.32;;;7.53;;
12760;SDS011;6444;49.742;6.114;2023-06-26T05:05:06;8.15;;;7.35;;
12760;SDS011;6444;49.742;6.114;2023-06-26T05:07:32;7.93;;;7.10;;
12760;SDS011;6444;49.742;6.114;2023-06-26T05:09:59;7.50;;;6.70;;
12760;SDS011;6444;49.742;6.114;2023-06-26T05:12:26;7.72;;;6.00;;
12760;SDS011;6444;49.742;6.114;2023-06-26T05:14:52;6.55;;;5.82;;
12760;SDS011;6444;49.742;6.114;2023-06-26T05:17:19;6.40;;;5.80;;
12760;SDS011;6444;49.742;6.114;2023-06-26T05:19:46;6.45;;;5.82;;
12760;SDS011;6444;49.742;6.114;2023-06-26T05:22:14;8.93;;;5.78;;
12760;SDS011;6444;49.742;6.114;2023-06-26T05:24:40;6.20;;;5.28;;
12760;SDS011;6444;49.742;6.114;2023-06-26T05:27:07;5.75;;;5.18;;
12760;SDS011;6444;49.742;6.114;2023-06-26T05:29:34;7.45;;;5.40;;
12760;SDS011;6444;49.742;6.114;2023-06-26T05:32:01;6.72;;;5.70;;
12760;SDS011;6444;49.742;6.114;2023-06-26T05:34:28;6.32;;;5.12;;
12760;SDS011;6444;49.742;6.114;2023-06-26T05:36:55;5.37;;;4.85;;
12760;SDS011;6444;49.742;6.114;2023-06-26T05:39:21;7.28;;;6.00;;
12760;SDS011;6444;49.742;6.114;2023-06-26T05:41:49;7.47;;;5.28;;
12760;SDS011;6444;49.742;6.114;2023-06-26T05:44:15;5.78;;;4.70;;
12760;SDS011;6444;49.742;6.114;2023-06-26T05:46:42;6.35;;;4.78;;
12760;SDS011;6444;49.742;6.114;2023-06-26T05:49:09;5.53;;;4.82;;
12760;SDS011;6444;49.742;6.114;2023-06-26T05:51:36;4.53;;;4.10;;
12760;SDS011;6444;49.742;6.114;2023-06-26T05:54:03;6.82;;;4.43;;
12760;SDS011;6444;49.742;6.114;2023-06-26T05:56:29;4.95;;;3.95;;
12760;SDS011;6444;49.742;6.114;2023-06-26T05:58:56;4.18;;;3.33;;
12760;SDS011;6444;49.742;6.114;2023-06-26T06:01:23;3.17;;;2.62;;
12760;SDS011;6444;49.742;6.114;2023-06-26T06:03:49;4.68;;;2.90;;
12760;SDS011;6444;49.742;6.114;2023-06-26T06:06:16;4.05;;;2.60;;
12760;SDS011;6444;49.742;6.114;2023-06-26T06:08:43;2.90;;;2.60;;
12760;SDS011;6444;49.742;6.114;2023-06-26T06:11:09;3.22;;;2.80;;
12760;SDS011;6444;49.742;6.114;2023-06-26T06:13:36;2.40;;;2.20;;
12760;SDS011;6444;49.742;6.114;2023-06-26T06:16:03;2.60;;;2.40;;
12760;SDS011;6444;49.742;6.114;2023-06-26T06:18:30;3.03;;;2.70;;
12760;SDS011;6444;49.742;6.114;2023-06-26T06:20:57;5.32;;;2.85;;
12760;SDS011;6444;49.742;6.114;2023-06-26T06:23:23;4.70;;;2.47;;
12760;SDS011;6444;49.742;6.114;2023-06-26T06:25:50;6.93;;;2.70;;
12760;SDS011;6444;49.742;6.114;2023-06-26T06:28:17;2.97;;;2.12;;
12760;SDS011;6444;49.742;6.114;2023-06-26T06:30:44;3.28;;;2.20;;
12760;SDS011;6444;49.742;6.114;2023-06-26T06:33:10;3.58;;;2.22;;
12760;SDS011;6444;49.742;6.114;2023-06-26T06:35:37;3.00;;;2.20;;
12760;SDS011;6444;49.742;6.114;2023-06-26T06:38:04;3.78;;;2.37;;
12760;SDS011;6444;49.742;6.114;2023-06-26T06:40:30;3.30;;;1.98;;
12760;SDS011;6444;49.742;6.114;2023-06-26T06:42:58;4.25;;;2.40;;
12760;SDS011;6444;49.742;6.114;2023-06-26T06:45:24;2.62;;;2.20;;
12760;SDS011;6444;49.742;6.114;2023-06-26T06:47:51;3.00;;;2.33;;
12760;SDS011;6444;49.742;6.114;2023-06-26T06:50:18;3.00;;;2.30;;
12760;SDS011;6444;49.742;6.114;2023-06-26T06:52:44;5.00;;;2.65;;
12760;SDS011;6444;49.742;6.114;2023-06-26T06:55:11;3.33;;;2.30;;
12760;SDS011;6444;49.742;6.114;2023-06-26T06:57:38;7.18;;;2.72;;
12760;SDS011;6444;49.742;6.114;2023-06-26T07:00:05;6.75;;;2.70;;
12760;SDS011;6444;49.742;6.114;2023-06-26T07:02:31;5.40;;;2.60;;
12760;SDS011;6444;49.742;6.114;2023-06-26T07:04:58;3.40;;;2.45;;
12760;SDS011;6444;49.742;6.114;2023-06-26T07:07:28;4.45;;;2.50;;
12760;SDS011;6444;49.742;6.114;2023-06-26T07:09:51;4.57;;;2.62;;
12760;SDS011;6444;49.742;6.114;2023-06-26T07:12:17;2.72;;;1.92;;
12760;SDS011;6444;49.742;6.114;2023-06-26T07:14:45;2.37;;;2.08;;
12760;SDS011;6444;49.742;6.114;2023-06-26T07:17:11;3.25;;;2.12;;
12760;SDS011;6444;49.742;6.114;2023-06-26T07:19:38;2.45;;;2.22;;
12760;SDS011;6444;49.742;6.114;2023-06-26T07:22:05;4.00;;;2.33;;
12760;SDS011;6444;49.742;6.114;2023-06-26T07:24:31;4.50;;;2.70;;
12760;SDS011;6444;49.742;6.114;2023-06-26T07:26:59;4.85;;;2.80;;
12760;SDS011;6444;49.742;6.114;2023-06-26T07:29:25;3.70;;;2.67;;
12760;SDS011;6444;49.742;6.114;2023-06-26T07:31:52;4.60;;;2.55;;
12760;SDS011;6444;49.742;6.114;2023-06-26T07:34:19;4.57;;;2.50;;
12760;SDS011;6444;49.742;6.114;2023-06-26T07:36:45;3.87;;;2.65;;
12760;SDS011;6444;49.742;6.114;2023-06-26T07:39:12;4.50;;;2.50;;
12760;SDS011;6444;49.742;6.114;2023-06-26T07:41:38;4.20;;;2.25;;
12760;SDS011;6444;49.742;6.114;2023-06-26T07:44:05;4.80;;;2.55;;
12760;SDS011;6444;49.742;6.114;2023-06-26T07:46:32;3.62;;;2.50;;
12760;SDS011;6444;49.742;6.114;2023-06-26T07:48:58;4.75;;;2.90;;
12760;SDS011;6444;49.742;6.114;2023-06-26T07:51:25;3.78;;;2.70;;
12760;SDS011;6444;49.742;6.114;2023-06-26T07:53:52;4.40;;;2.60;;
12760;SDS011;6444;49.742;6.114;2023-06-26T07:56:18;3.75;;;2.75;;
12760;SDS011;6444;49.742;6.114;2023-06-26T07:58:45;12.27;;;3.67;;
12760;SDS011;6444;49.742;6.114;2023-06-26T08:01:12;9.68;;;3.70;;
12760;SDS011;6444;49.742;6.114;2023-06-26T08:03:39;4.28;;;2.53;;
12760;SDS011;6444;49.742;6.114;2023-06-26T08:06:05;4.37;;;2.80;;
12760;SDS011;6444;49.742;6.114;2023-06-26T08:08:35;6.10;;;2.50;;
12760;SDS011;6444;49.742;6.114;2023-06-26T08:11:01;5.75;;;2.70;;
12760;SDS011;6444;49.742;6.114;2023-06-26T08:13:28;5.85;;;3.20;;
12760;SDS011;6444;49.742;6.114;2023-06-26T08:15:55;3.83;;;2.70;;
12760;SDS011;6444;49.742;6.114;2023-06-26T08:18:21;5.00;;;2.70;;
12760;SDS011;6444;49.742;6.114;2023-06-26T08:20:48;6.82;;;3.30;;
12760;SDS011;6444;49.742;6.114;2023-06-26T08:23:15;4.95;;;2.60;;
12760;SDS011;6444;49.742;6.114;2023-06-26T08:25:41;7.70;;;3.30;;
12760;SDS011;6444;49.742;6.114;2023-06-26T08:28:08;4.97;;;2.80;;
12760;SDS011;6444;49.742;6.114;2023-06-26T08:30:35;5.62;;;2.70;;
12760;SDS011;6444;49.742;6.114;2023-06-26T08:33:02;6.87;;;2.25;;
12760;SDS011;6444;49.742;6.114;2023-06-26T08:35:29;2.60;;;2.30;;
12760;SDS011;6444;49.742;6.114;2023-06-26T08:37:58;5.43;;;2.50;;
12760;SDS011;6444;49.742;6.114;2023-06-26T08:40:28;4.22;;;2.25;;
12760;SDS011;6444;49.742;6.114;2023-06-26T08:42:54;3.15;;;2.05;;
12760;SDS011;6444;49.742;6.114;2023-06-26T08:45:21;4.65;;;2.20;;
12760;SDS011;6444;49.742;6.114;2023-06-26T08:47:47;3.83;;;2.58;;
12760;SDS011;6444;49.742;6.114;2023-06-26T08:50:14;4.72;;;2.30;;
12760;SDS011;6444;49.742;6.114;2023-06-26T08:55:13;2.78;;;2.08;;
12760;SDS011;6444;49.742;6.114;2023-06-26T08:57:40;6.60;;;2.50;;
12760;SDS011;6444;49.742;6.114;2023-06-26T09:00:06;4.15;;;2.05;;
12760;SDS011;6444;49.742;6.114;2023-06-26T09:02:33;3.62;;;2.15;;
12760;SDS011;6444;49.742;6.114;2023-06-26T09:05:00;5.20;;;2.35;;
12760;SDS011;6444;49.742;6.114;2023-06-26T09:07:27;5.85;;;2.53;;
12760;SDS011;6444;49.742;6.114;2023-06-26T09:09:54;2.72;;;2.10;;
12760;SDS011;6444;49.742;6.114;2023-06-26T09:12:21;4.15;;;2.45;;
12760;SDS011;6444;49.742;6.114;2023-06-26T09:14:47;3.25;;;1.60;;
12760;SDS011;6444;49.742;6.114;2023-06-26T09:17:14;3.47;;;1.60;;
12760;SDS011;6444;49.742;6.114;2023-06-26T09:19:41;3.55;;;1.70;;
12760;SDS011;6444;49.742;6.114;2023-06-26T09:22:13;4.15;;;1.65;;
12760;SDS011;6444;49.742;6.114;2023-06-26T09:24:40;3.22;;;1.80;;
12760;SDS011;6444;49.742;6.114;2023-06-26T09:27:09;4.78;;;1.65;;
12760;SDS011;6444;49.742;6.114;2023-06-26T09:29:36;2.00;;;1.35;;
12760;SDS011;6444;49.742;6.114;2023-06-26T09:32:02;4.75;;;2.12;;
12760;SDS011;6444;49.742;6.114;2023-06-26T09:34:32;3.47;;;1.80;;
12760;SDS011;6444;49.742;6.114;2023-06-26T09:37:01;2.60;;;1.70;;
12760;SDS011;6444;49.742;6.114;2023-06-26T09:39:30;2.95;;;1.60;;
12760;SDS011;6444;49.742;6.114;2023-06-26T09:41:55;2.17;;;1.60;;
12760;SDS011;6444;49.742;6.114;2023-06-26T09:44:23;3.90;;;1.65;;
12760;SDS011;6444;49.742;6.114;2023-06-26T09:46:49;2.50;;;1.40;;
12760;SDS011;6444;49.742;6.114;2023-06-26T09:49:16;3.10;;;1.50;;
12760;SDS011;6444;49.742;6.114;2023-06-26T09:51:42;2.90;;;1.58;;
12760;SDS011;6444;49.742;6.114;2023-06-26T09:54:09;2.85;;;1.50;;
12760;SDS011;6444;49.742;6.114;2023-06-26T09:56:37;3.67;;;1.50;;
12760;SDS011;6444;49.742;6.114;2023-06-26T09:59:04;3.47;;;1.70;;
12760;SDS011;6444;49.742;6.114;2023-06-26T10:01:30;2.30;;;1.27;;
12760;SDS011;6444;49.742;6.114;2023-06-26T10:03:56;4.03;;;1.70;;
12760;SDS011;6444;49.742;6.114;2023-06-26T10:06:24;4.20;;;1.60;;
12760;SDS011;6444;49.742;6.114;2023-06-26T10:09:02;2.97;;;1.45;;
12760;SDS011;6444;49.742;6.114;2023-06-26T10:11:40;2.97;;;1.50;;
12760;SDS011;6444;49.742;6.114;2023-06-26T10:14:01;2.37;;;1.23;;
12760;SDS011;6444;49.742;6.114;2023-06-26T10:16:27;4.10;;;1.62;;
12760;SDS011;6444;49.742;6.114;2023-06-26T10:18:56;2.80;;;1.50;;
12760;SDS011;6444;49.742;6.114;2023-06-26T10:21:21;4.10;;;1.52;;
12760;SDS011;6444;49.742;6.114;2023-06-26T10:23:47;2.60;;;1.08;;
12760;SDS011;6444;49.742;6.114;2023-06-26T10:26:14;2.33;;;1.23;;
12760;SDS011;6444;49.742;6.114;2023-06-26T10:28:41;2.25;;;1.10;;
12760;SDS011;6444;49.742;6.114;2023-06-26T10:31:07;2.97;;;1.10;;
12760;SDS011;6444;49.742;6.114;2023-06-26T10:33:34;2.25;;;1.33;;
12760;SDS011;6444;49.742;6.114;2023-06-26T10:36:17;2.15;;;1.08;;
12760;SDS011;6444;49.742;6.114;2023-06-26T10:38:53;2.97;;;1.08;;
12760;SDS011;6444;49.742;6.114;2023-06-26T10:41:19;2.47;;;1.40;;
12760;SDS011;6444;49.742;6.114;2023-06-26T10:43:46;1.65;;;1.10;;
12760;SDS011;6444;49.742;6.114;2023-06-26T10:46:14;1.70;;;1.20;;
12760;SDS011;6444;49.742;6.114;2023-06-26T10:48:58;2.70;;;1.00;;
12760;SDS011;6444;49.742;6.114;2023-06-26T10:51:25;5.18;;;1.20;;
12760;SDS011;6444;49.742;6.114;2023-06-26T10:53:57;2.65;;;1.00;;
12760;SDS011;6444;49.742;6.114;2023-06-26T10:56:21;1.45;;;1.10;;
12760;SDS011;6444;49.742;6.114;2023-06-26T10:58:47;2.05;;;1.10;;
12760;SDS011;6444;49.742;6.114;2023-06-26T11:01:18;2.35;;;1.20;;
12760;SDS011;6444;49.742;6.114;2023-06-26T11:06:14;1.80;;;1.15;;
12760;SDS011;6444;49.742;6.114;2023-06-26T11:08:47;4.82;;;1.52;;
12760;SDS011;6444;49.742;6.114;2023-06-26T11:11:15;3.37;;;1.37;;
12760;SDS011;6444;49.742;6.114;2023-06-26T11:13:41;3.60;;;1.37;;
12760;SDS011;6444;49.742;6.114;2023-06-26T11:16:08;1.98;;;1.00;;
12760;SDS011;6444;49.742;6.114;2023-06-26T11:18:35;2.05;;;1.30;;
12760;SDS011;6444;49.742;6.114;2023-06-26T11:21:05;3.17;;;1.20;;
12760;SDS011;6444;49.742;6.114;2023-06-26T11:23:34;4.20;;;1.50;;
12760;SDS011;6444;49.742;6.114;2023-06-26T11:26:14;4.25;;;1.55;;
12760;SDS011;6444;49.742;6.114;2023-06-26T11:28:48;4.28;;;1.62;;
12760;SDS011;6444;49.742;6.114;2023-06-26T11:31:26;2.87;;;1.20;;
12760;SDS011;6444;49.742;6.114;2023-06-26T11:33:59;2.53;;;1.55;;
12760;SDS011;6444;49.742;6.114;2023-06-26T11:36:26;3.10;;;1.40;;
12760;SDS011;6444;49.742;6.114;2023-06-26T11:38:53;8.52;;;3.78;;
12760;SDS011;6444;49.742;6.114;2023-06-26T11:41:19;21.27;;;10.50;;
12760;SDS011;6444;49.742;6.114;2023-06-26T11:43:46;7.65;;;3.62;;
12760;SDS011;6444;49.742;6.114;2023-06-26T11:46:12;3.50;;;1.52;;
12760;SDS011;6444;49.742;6.114;2023-06-26T11:48:39;12.30;;;6.45;;
12760;SDS011;6444;49.742;6.114;2023-06-26T11:51:05;3.95;;;2.10;;
12760;SDS011;6444;49.742;6.114;2023-06-26T11:53:33;3.53;;;2.12;;
12760;SDS011;6444;49.742;6.114;2023-06-26T11:55:59;2.85;;;1.12;;
12760;SDS011;6444;49.742;6.114;2023-06-26T11:58:25;5.65;;;2.22;;
12760;SDS011;6444;49.742;6.114;2023-06-26T12:00:52;3.03;;;1.83;;
12760;SDS011;6444;49.742;6.114;2023-06-26T12:03:19;4.30;;;2.58;;
12760;SDS011;6444;49.742;6.114;2023-06-26T12:05:45;4.75;;;1.83;;
12760;SDS011;6444;49.742;6.114;2023-06-26T12:08:12;3.28;;;1.70;;
12760;SDS011;6444;49.742;6.114;2023-06-26T12:10:38;3.10;;;2.20;;
12760;SDS011;6444;49.742;6.114;2023-06-26T12:13:05;4.00;;;1.77;;
12760;SDS011;6444;49.742;6.114;2023-06-26T12:15:32;2.58;;;1.95;;
12760;SDS011;6444;49.742;6.114;2023-06-26T12:17:59;4.30;;;2.30;;
12760;SDS011;6444;49.742;6.114;2023-06-26T12:20:26;3.92;;;2.47;;
12760;SDS011;6444;49.742;6.114;2023-06-26T12:22:52;4.47;;;2.17;;
12760;SDS011;6444;49.742;6.114;2023-06-26T12:25:25;5.65;;;1.50;;
12760;SDS011;6444;49.742;6.114;2023-06-26T12:27:52;3.08;;;1.65;;
12760;SDS011;6444;49.742;6.114;2023-06-26T12:30:18;2.60;;;1.42;;
12760;SDS011;6444;49.742;6.114;2023-06-26T12:32:45;2.58;;;1.37;;
12760;SDS011;6444;49.742;6.114;2023-06-26T12:35:11;2.67;;;1.55;;
12760;SDS011;6444;49.742;6.114;2023-06-26T12:37:38;2.62;;;1.58;;
12760;SDS011;6444;49.742;6.114;2023-06-26T12:40:20;4.95;;;1.90;;
12760;SDS011;6444;49.742;6.114;2023-06-26T12:42:49;3.55;;;1.73;;
12760;SDS011;6444;49.742;6.114;2023-06-26T12:45:16;3.05;;;1.50;;
12760;SDS011;6444;49.742;6.114;2023-06-26T12:47:42;4.15;;;2.10;;
12760;SDS011;6444;49.742;6.114;2023-06-26T12:50:09;3.95;;;1.77;;
12760;SDS011;6444;49.742;6.114;2023-06-26T12:52:36;4.82;;;1.60;;
12760;SDS011;6444;49.742;6.114;2023-06-26T12:55:02;2.78;;;1.60;;
12760;SDS011;6444;49.742;6.114;2023-06-26T12:57:30;3.70;;;1.80;;
12760;SDS011;6444;49.742;6.114;2023-06-26T12:59:57;5.45;;;2.28;;
12760;SDS011;6444;49.742;6.114;2023-06-26T13:02:24;3.87;;;2.08;;
12760;SDS011;6444;49.742;6.114;2023-06-26T13:04:50;4.60;;;1.70;;
12760;SDS011;6444;49.742;6.114;2023-06-26T13:07:17;5.18;;;2.10;;
12760;SDS011;6444;49.742;6.114;2023-06-26T13:09:44;3.55;;;1.60;;
12760;SDS011;6444;49.742;6.114;2023-06-26T13:12:11;5.32;;;1.80;;
12760;SDS011;6444;49.742;6.114;2023-06-26T13:14:37;5.25;;;1.92;;
12760;SDS011;6444;49.742;6.114;2023-06-26T13:17:04;5.50;;;2.00;;
12760;SDS011;6444;49.742;6.114;2023-06-26T13:19:31;3.60;;;1.62;;
12760;SDS011;6444;49.742;6.114;2023-06-26T13:21:57;4.37;;;1.60;;
12760;SDS011;6444;49.742;6.114;2023-06-26T13:24:25;2.08;;;1.50;;
12760;SDS011;6444;49.742;6.114;2023-06-26T13:26:51;3.05;;;1.62;;
12760;SDS011;6444;49.742;6.114;2023-06-26T13:29:18;2.90;;;1.80;;
12760;SDS011;6444;49.742;6.114;2023-06-26T13:31:45;3.58;;;1.55;;
12760;SDS011;6444;49.742;6.114;2023-06-26T13:34:20;3.55;;;1.70;;
12760;SDS011;6444;49.742;6.114;2023-06-26T13:36:38;3.35;;;1.55;;
12760;SDS011;6444;49.742;6.114;2023-06-26T13:39:05;3.53;;;1.80;;
12760;SDS011;6444;49.742;6.114;2023-06-26T13:41:31;4.12;;;1.62;;
12760;SDS011;6444;49.742;6.114;2023-06-26T13:43:58;4.00;;;1.75;;
12760;SDS011;6444;49.742;6.114;2023-06-26T13:46:24;3.75;;;1.48;;
12760;SDS011;6444;49.742;6.114;2023-06-26T13:48:51;4.28;;;1.73;;
12760;SDS011;6444;49.742;6.114;2023-06-26T13:51:18;2.15;;;1.60;;
12760;SDS011;6444;49.742;6.114;2023-06-26T13:53:44;5.32;;;1.85;;
12760;SDS011;6444;49.742;6.114;2023-06-26T13:56:11;3.65;;;1.65;;
12760;SDS011;6444;49.742;6.114;2023-06-26T13:58:38;3.25;;;1.80;;
12760;SDS011;6444;49.742;6.114;2023-06-26T14:01:05;2.58;;;1.60;;
12760;SDS011;6444;49.742;6.114;2023-06-26T14:03:32;3.50;;;2.00;;
12760;SDS011;6444;49.742;6.114;2023-06-26T14:05:58;3.10;;;1.50;;
12760;SDS011;6444;49.742;6.114;2023-06-26T14:08:25;2.65;;;1.50;;
12760;SDS011;6444;49.742;6.114;2023-06-26T14:10:51;4.70;;;1.40;;
12760;SDS011;6444;49.742;6.114;2023-06-26T14:13:19;2.47;;;1.40;;
12760;SDS011;6444;49.742;6.114;2023-06-26T14:15:45;2.90;;;1.70;;
12760;SDS011;6444;49.742;6.114;2023-06-26T14:18:12;4.35;;;1.55;;
12760;SDS011;6444;49.742;6.114;2023-06-26T14:20:39;4.85;;;2.10;;
12760;SDS011;6444;49.742;6.114;2023-06-26T14:23:06;3.92;;;1.62;;
12760;SDS011;6444;49.742;6.114;2023-06-26T14:25:33;2.83;;;1.60;;
12760;SDS011;6444;49.742;6.114;2023-06-26T14:27:59;2.55;;;1.50;;
12760;SDS011;6444;49.742;6.114;2023-06-26T14:30:26;4.87;;;2.22;;
12760;SDS011;6444;49.742;6.114;2023-06-26T14:32:53;3.78;;;1.77;;
12760;SDS011;6444;49.742;6.114;2023-06-26T14:35:19;4.65;;;1.85;;
12760;SDS011;6444;49.742;6.114;2023-06-26T14:37:47;3.05;;;1.67;;
12760;SDS011;6444;49.742;6.114;2023-06-26T14:40:13;4.60;;;1.67;;
12760;SDS011;6444;49.742;6.114;2023-06-26T14:42:39;4.70;;;1.77;;
12760;SDS011;6444;49.742;6.114;2023-06-26T14:45:06;2.58;;;1.77;;
12760;SDS011;6444;49.742;6.114;2023-06-26T14:47:33;3.65;;;1.90;;
12760;SDS011;6444;49.742;6.114;2023-06-26T14:50:00;4.78;;;2.20;;
12760;SDS011;6444;49.742;6.114;2023-06-26T14:52:26;4.03;;;2.00;;
12760;SDS011;6444;49.742;6.114;2023-06-26T14:54:53;5.35;;;2.17;;
12760;SDS011;6444;49.742;6.114;2023-06-26T14:57:20;3.55;;;2.08;;
12760;SDS011;6444;49.742;6.114;2023-06-26T14:59:47;4.20;;;1.70;;
12760;SDS011;6444;49.742;6.114;2023-06-26T15:02:13;3.28;;;1.70;;
12760;SDS011;6444;49.742;6.114;2023-06-26T15:04:40;5.40;;;2.10;;
12760;SDS011;6444;49.742;6.114;2023-06-26T15:07:07;3.90;;;1.90;;